Terminal Aerodrome Forecast
Issued by NWS

Home | Current Version | Previous Version | Text Only | Print | Product List | Glossary On
Versions: 1 2 3 4 5 6 7 8 9 10 11 12 13 14 15
000
FTUS43 KMQT 200500
TAFIWD
TAF
KIWD 200530Z 2006/2106 32003KT 1/2SM FG OVC002
     FM201400 33005KT P6SM BKN007
     FM201800 01005KT P6SM BKN020
     FM202000 02005KT P6SM SCT035
     FM210100 00000KT P6SM SCT250
      AMD NOT SKED=

USA.gov is the U.S. government's official web portal to all federal, state and local government web resources and services.